Brule, Nebraska
Current Conditions -  °F | °C
As of 11:15 AM on Thursday 29 Jan 2015 (Local Time) from KOGA Reporting Station
Clear Clear  
Wind Chill: 33°   Ceiling: Unl
Heat Index: 40°   Visibility: 10mi
Dew Point: 25°   Wind: 10mph
Humidity: 56%   Direction: 330°NNW
Pressure: 30.5"   Gusts: 17mph
Location:  41.09°N, 101.89°W
Report Text: KOGA 291815Z AUTO 33009G15KT 10SM CLR 04/M04 A3050 RMK AO2 T00431039
Loading
Personal Weather Stations






























Interactive Weather Map New forecast layout! Learn more

10-Day Weather Forecast

Advertisements
Track Severe Weather on mobile